createdAt,value
2023-02-17T00:00:00.122Z,64.60571289
2023-02-17T00:01:01.680Z,64.70947266
2023-02-17T00:02:02.191Z,64.81323242
2023-02-17T00:03:02.720Z,64.81323242
2023-02-17T00:04:03.273Z,64.91699219
2023-02-17T00:05:03.857Z,65.02075195
2023-02-17T00:06:05.443Z,65.32592773
2023-02-17T00:07:05.794Z,65.22216797
2023-02-17T00:08:06.418Z,65.35644531
2023-02-17T00:09:07.576Z,65.56396484
2023-02-17T00:10:08.096Z,65.56396484
2023-02-17T00:11:08.692Z,65.25268555
2023-02-17T00:12:09.318Z,65.02075195
2023-02-17T00:13:09.987Z,65.1184082
2023-02-17T00:14:10.677Z,65.32592773
2023-02-17T00:15:11.176Z,65.1184082
2023-02-17T00:16:11.884Z,65.22216797
2023-02-17T00:17:12.493Z,65.4296875
2023-02-17T00:18:13.090Z,65.53344727
2023-02-17T00:19:14.562Z,65.4296875
2023-02-17T00:20:15.213Z,65.32592773
2023-02-17T00:21:15.900Z,65.22216797
2023-02-17T00:22:16.365Z,65.4296875
2023-02-17T00:23:16.893Z,65.02075195
2023-02-17T00:24:17.480Z,64.60571289
2023-02-17T00:25:18.795Z,63.98925781
2023-02-17T00:26:19.333Z,63.88549805
2023-02-17T00:27:19.878Z,64.09301758
2023-02-17T00:28:20.450Z,63.67797852
2023-02-17T00:29:52.145Z,63.67797852
2023-02-17T00:30:52.744Z,63.47045898
2023-02-17T00:31:53.212Z,63.36669922
2023-02-17T00:32:53.670Z,63.67797852
2023-02-17T00:33:54.241Z,63.57421875
2023-02-17T00:34:54.869Z,63.57421875
2023-02-17T00:35:56.334Z,63.57421875
2023-02-17T00:36:56.864Z,63.78173828
2023-02-17T00:37:57.408Z,63.88549805
2023-02-17T00:38:58.822Z,63.78173828
2023-02-17T00:39:59.438Z,63.36669922
2023-02-17T00:41:00.043Z,62.85400391
2023-02-17T00:42:00.648Z,63.1652832
2023-02-17T00:43:01.130Z,62.85400391
2023-02-17T00:44:01.850Z,62.64648438
2023-02-17T00:45:02.387Z,62.43896484
2023-02-17T00:46:03.117Z,62.43896484
2023-02-17T00:47:03.557Z,62.75024414
2023-02-17T00:48:04.046Z,63.1652832
2023-02-17T00:49:05.336Z,63.26904297
2023-02-17T00:50:05.965Z,63.44604492
2023-02-17T00:51:06.478Z,63.7512207
2023-02-17T00:52:07.053Z,63.23852539
2023-02-17T00:53:07.606Z,63.13476563
2023-02-17T00:54:08.141Z,63.34228516
2023-02-17T00:55:09.370Z,63.64746094
2023-02-17T00:56:09.966Z,63.88549805
2023-02-17T00:57:10.711Z,63.54370117
2023-02-17T00:58:11.174Z,63.64746094
2023-02-17T00:59:12.915Z,63.67797852
2023-02-17T01:00:13.539Z,63.57421875
2023-02-17T01:01:14.062Z,63.36669922
2023-02-17T01:02:14.643Z,63.26904297
2023-02-17T01:03:15.160Z,63.06152344
2023-02-17T01:04:15.693Z,63.06152344
2023-02-17T01:05:16.193Z,63.06152344
2023-02-17T01:06:16.798Z,63.06152344
2023-02-17T01:07:17.375Z,62.95776367
2023-02-17T01:08:17.904Z,62.95776367
2023-02-17T01:09:19.349Z,62.92724609
2023-02-17T01:10:19.930Z,62.82348633
2023-02-17T01:11:20.585Z,62.62207031
2023-02-17T01:12:51.759Z,62.51831055
2023-02-17T01:13:52.322Z,61.99951172
2023-02-17T01:14:52.870Z,61.7980957
2023-02-17T01:15:54.087Z,61.69433594
2023-02-17T01:16:54.727Z,61.38305664
2023-02-17T01:17:55.288Z,61.07177734
2023-02-17T01:18:55.849Z,61.07177734
2023-02-17T01:19:57.099Z,61.07177734
2023-02-17T01:20:57.696Z,60.87036133
2023-02-17T01:21:58.173Z,60.6628418
2023-02-17T01:22:58.682Z,60.76660156
2023-02-17T01:23:59.231Z,60.6628418
2023-02-17T01:24:59.762Z,60.15014648
2023-02-17T01:26:00.252Z,60.24780273
2023-02-17T01:27:00.722Z,60.3515625
2023-02-17T01:28:01.396Z,60.3515625
2023-02-17T01:29:02.618Z,60.3515625
2023-02-17T01:30:03.162Z,60.45532227
2023-02-17T01:31:03.806Z,60.45532227
2023-02-17T01:32:04.214Z,60.45532227
2023-02-17T01:33:04.727Z,60.6628418
2023-02-17T01:34:05.265Z,60.45532227
2023-02-17T01:35:05.823Z,60.55908203
2023-02-17T01:36:06.763Z,60.76660156
2023-02-17T01:37:06.854Z,60.6628418
2023-02-17T01:38:07.381Z,60.87036133
2023-02-17T01:39:07.872Z,60.55908203
2023-02-17T01:40:09.108Z,60.6628418
2023-02-17T01:41:09.626Z,60.76660156
2023-02-17T01:42:10.122Z,60.87036133
2023-02-17T01:43:10.970Z,60.87036133
2023-02-17T01:44:11.548Z,61.04736328
2023-02-17T01:45:12.085Z,61.07177734
2023-02-17T01:46:12.678Z,60.94360352
2023-02-17T01:47:13.057Z,60.76660156
2023-02-17T01:48:13.537Z,60.73608398
2023-02-17T01:49:14.862Z,60.83984375
2023-02-17T01:50:15.389Z,60.76660156
2023-02-17T01:51:16.050Z,60.73608398
2023-02-17T01:52:16.405Z,60.83984375
2023-02-17T01:53:16.909Z,60.83984375
2023-02-17T01:54:17.397Z,60.94360352
2023-02-17T01:55:17.947Z,60.73608398
2023-02-17T01:56:18.502Z,60.63232422
2023-02-17T01:57:19.053Z,60.32714844
2023-02-17T01:58:20.336Z,60.32714844
2023-02-17T01:59:51.055Z,60.11962891
2023-02-17T02:00:52.307Z,60.11962891
2023-02-17T02:01:52.989Z,60.11962891
2023-02-17T02:02:53.472Z,60.11962891
2023-02-17T02:03:53.834Z,60.11962891
2023-02-17T02:04:54.321Z,60.11962891
2023-02-17T02:05:54.879Z,60.22338867
2023-02-17T02:06:55.351Z,60.11962891
2023-02-17T02:07:55.865Z,60.11962891
2023-02-17T02:08:56.363Z,60.11962891
2023-02-17T02:09:57.576Z,60.22338867
2023-02-17T02:10:58.135Z,59.91210938
2023-02-17T02:11:58.643Z,59.91210938
2023-02-17T02:12:59.185Z,60.01586914
2023-02-17T02:13:59.718Z,59.91210938
2023-02-17T02:15:00.192Z,59.91210938
2023-02-17T02:16:00.753Z,59.78393555
2023-02-17T02:17:01.305Z,59.80834961
2023-02-17T02:18:02.645Z,59.91210938
2023-02-17T02:19:03.234Z,60.11962891
2023-02-17T02:20:04.609Z,60.22338867
2023-02-17T02:21:05.155Z,60.22338867
2023-02-17T02:22:05.682Z,60.32714844
2023-02-17T02:23:06.221Z,60.52856445
2023-02-17T02:24:06.756Z,60.63232422
2023-02-17T02:25:07.262Z,60.4309082
2023-02-17T02:26:07.996Z,60.4309082
2023-02-17T02:27:08.364Z,60.32714844
2023-02-17T02:28:08.932Z,60.29663086
2023-02-17T02:29:10.071Z,60.40039063
2023-02-17T02:30:11.158Z,60.40039063
2023-02-17T02:31:11.706Z,60.32714844
2023-02-17T02:32:12.099Z,60.08911133
2023-02-17T02:33:12.600Z,59.99145508
2023-02-17T02:34:13.174Z,59.99145508
2023-02-17T02:35:13.669Z,59.99145508
2023-02-17T02:36:14.143Z,59.88769531
2023-02-17T02:37:14.612Z,59.88769531
2023-02-17T02:38:15.090Z,59.88769531
2023-02-17T02:39:15.657Z,59.88769531
2023-02-17T02:40:17.091Z,60.08911133
2023-02-17T02:41:17.602Z,60.19287109
2023-02-17T02:42:18.829Z,60.29663086
2023-02-17T02:43:19.318Z,60.80932617
2023-02-17T02:44:50.457Z,61.22436523
2023-02-17T02:45:51.014Z,61.2487793
2023-02-17T02:46:51.463Z,61.12060547
2023-02-17T02:47:52.013Z,61.0168457
2023-02-17T02:48:52.512Z,60.71166992
2023-02-17T02:49:53.876Z,60.63232422
2023-02-17T02:50:54.378Z,60.52856445
2023-02-17T02:51:54.884Z,60.60791016
2023-02-17T02:52:55.384Z,60.60791016
2023-02-17T02:53:55.868Z,60.80932617
2023-02-17T02:54:56.407Z,61.15112305
2023-02-17T02:55:56.925Z,61.56005859
2023-02-17T02:56:57.438Z,61.66381836
2023-02-17T02:57:57.962Z,61.73706055
2023-02-17T02:58:59.026Z,61.63330078
2023-02-17T03:00:00.376Z,61.84082031
2023-02-17T03:01:00.909Z,62.15209961
2023-02-17T03:02:01.377Z,62.04833984
2023-02-17T03:03:01.901Z,61.84082031
2023-02-17T03:04:02.437Z,61.94458008
2023-02-17T03:05:02.904Z,61.94458008
2023-02-17T03:06:03.511Z,61.73706055
2023-02-17T03:07:03.974Z,61.63330078
2023-02-17T03:08:04.510Z,61.97509766
2023-02-17T03:09:05.098Z,62.07275391
2023-02-17T03:10:06.297Z,62.07275391
2023-02-17T03:11:06.838Z,61.94458008
2023-02-17T03:12:08.174Z,61.73706055
2023-02-17T03:13:08.724Z,61.63330078
2023-02-17T03:14:09.253Z,61.52954102
2023-02-17T03:15:09.728Z,61.52954102
2023-02-17T03:16:11.129Z,61.43188477
2023-02-17T03:17:11.530Z,61.328125
2023-02-17T03:18:12.078Z,61.43188477
2023-02-17T03:19:12.577Z,61.43188477
2023-02-17T03:20:13.809Z,61.22436523
2023-02-17T03:21:14.362Z,61.328125
2023-02-17T03:22:14.817Z,61.43188477
2023-02-17T03:23:15.368Z,61.73706055
2023-02-17T03:24:15.887Z,62.04833984
2023-02-17T03:25:16.403Z,62.17651367
2023-02-17T03:26:16.914Z,62.24975586
2023-02-17T03:27:18.028Z,62.17651367
2023-02-17T03:28:18.571Z,62.17651367
2023-02-17T03:29:19.501Z,61.94458008
2023-02-17T03:30:51.148Z,62.07275391
2023-02-17T03:31:51.761Z,62.04833984
2023-02-17T03:32:52.122Z,62.04833984
2023-02-17T03:33:52.704Z,62.15209961
2023-02-17T03:34:53.230Z,62.04833984
2023-02-17T03:35:53.804Z,61.94458008
2023-02-17T03:36:54.375Z,62.04833984
2023-02-17T03:37:54.839Z,62.15209961
2023-02-17T03:38:55.389Z,61.94458008
2023-02-17T03:39:55.888Z,62.04833984
2023-02-17T03:40:57.080Z,62.04833984
2023-02-17T03:41:57.590Z,61.94458008
2023-02-17T03:42:58.107Z,62.04833984
2023-02-17T03:43:58.634Z,61.94458008
2023-02-17T03:44:59.236Z,61.73706055
2023-02-17T03:45:59.837Z,61.94458008
2023-02-17T03:47:00.379Z,62.24975586
2023-02-17T03:48:00.866Z,62.35351563
2023-02-17T03:49:01.380Z,62.48779297
2023-02-17T03:50:01.940Z,62.48779297
2023-02-17T03:51:03.100Z,62.59155273
2023-02-17T03:52:03.711Z,62.48779297
2023-02-17T03:53:04.221Z,62.3840332
2023-02-17T03:54:04.727Z,62.48779297
2023-02-17T03:55:05.249Z,62.3840332
2023-02-17T03:56:06.731Z,62.3840332
2023-02-17T03:57:06.932Z,62.79296875
2023-02-17T03:58:07.483Z,63.20800781
2023-02-17T03:59:08.003Z,63.10424805
2023-02-17T04:00:08.498Z,62.59155273
2023-02-17T04:01:09.642Z,62.48779297
2023-02-17T04:02:10.470Z,62.89672852
2023-02-17T04:03:11.024Z,62.59155273
2023-02-17T04:04:11.611Z,62.3840332
2023-02-17T04:05:12.042Z,62.07275391
2023-02-17T04:06:12.611Z,62.07275391
2023-02-17T04:07:13.143Z,62.17651367
2023-02-17T04:08:13.645Z,62.28027344
2023-02-17T04:09:14.159Z,62.28027344
2023-02-17T04:10:14.682Z,62.3840332
2023-02-17T04:11:16.046Z,62.28027344
2023-02-17T04:12:16.614Z,62.3840332
2023-02-17T04:13:17.134Z,62.48779297
2023-02-17T04:14:17.710Z,62.28027344
2023-02-17T04:15:18.231Z,62.17651367
2023-02-17T04:16:49.331Z,62.07275391
2023-02-17T04:17:49.904Z,61.97509766
2023-02-17T04:18:50.404Z,61.84082031
2023-02-17T04:19:50.894Z,61.63330078
2023-02-17T04:20:52.069Z,61.63330078
2023-02-17T04:21:52.604Z,61.63330078
2023-02-17T04:22:53.154Z,61.43188477
2023-02-17T04:23:53.766Z,61.328125
2023-02-17T04:24:54.296Z,61.328125
2023-02-17T04:25:54.846Z,61.22436523
2023-02-17T04:26:55.344Z,61.328125
2023-02-17T04:27:55.855Z,61.328125
2023-02-17T04:28:56.481Z,61.43188477
2023-02-17T04:29:57.228Z,61.43188477
2023-02-17T04:30:58.638Z,61.52954102
2023-02-17T04:31:59.242Z,61.52954102
2023-02-17T04:32:59.616Z,61.22436523
2023-02-17T04:34:00.115Z,61.12060547
2023-02-17T04:35:00.696Z,61.0168457
2023-02-17T04:36:01.198Z,60.91308594
2023-02-17T04:37:01.759Z,60.91308594
2023-02-17T04:38:02.336Z,60.91308594
2023-02-17T04:39:02.752Z,60.91308594
2023-02-17T04:40:03.228Z,61.0168457
2023-02-17T04:41:04.602Z,61.0168457
2023-02-17T04:42:05.098Z,61.22436523
2023-02-17T04:43:05.677Z,61.43188477
2023-02-17T04:44:06.207Z,61.63330078
2023-02-17T04:45:06.694Z,61.84082031
2023-02-17T04:46:07.562Z,62.04833984
2023-02-17T04:47:07.704Z,61.94458008
2023-02-17T04:48:08.258Z,61.84082031
2023-02-17T04:49:08.722Z,61.73706055
2023-02-17T04:50:09.239Z,61.63330078
2023-02-17T04:51:10.600Z,61.22436523
2023-02-17T04:52:11.078Z,61.12060547
2023-02-17T04:53:11.605Z,61.22436523
2023-02-17T04:54:12.091Z,61.328125
2023-02-17T04:55:12.596Z,61.12060547
2023-02-17T04:56:13.075Z,61.12060547
2023-02-17T04:57:13.589Z,61.0168457
2023-02-17T04:58:14.145Z,61.0168457
2023-02-17T04:59:14.650Z,60.91308594
2023-02-17T05:00:15.132Z,60.80932617
2023-02-17T05:01:15.664Z,61.84082031
2023-02-17T05:02:16.815Z,62.15209961
2023-02-17T05:03:17.325Z,62.15209961
2023-02-17T05:04:18.249Z,62.87231445
2023-02-17T05:05:49.013Z,63.17749023
2023-02-17T05:06:49.580Z,63.48876953
2023-02-17T05:07:50.136Z,63.5925293
2023-02-17T05:08:50.755Z,63.69018555
2023-02-17T05:09:51.201Z,63.69018555
2023-02-17T05:10:52.326Z,63.48876953
2023-02-17T05:11:52.846Z,63.28125
2023-02-17T05:12:54.291Z,63.69018555
2023-02-17T05:13:54.968Z,64.00146484
2023-02-17T05:14:55.433Z,64.00146484
2023-02-17T05:15:56.830Z,63.79394531
2023-02-17T05:16:57.319Z,63.5925293
2023-02-17T05:17:57.848Z,63.48876953
2023-02-17T05:18:58.380Z,63.38500977
2023-02-17T05:19:58.911Z,63.28125
2023-02-17T05:21:00.311Z,62.76855469
2023-02-17T05:22:00.828Z,62.56103516
2023-02-17T05:23:01.331Z,62.35351563
2023-02-17T05:24:01.878Z,62.15209961
2023-02-17T05:25:02.369Z,61.94458008
2023-02-17T05:26:02.866Z,61.84082031
2023-02-17T05:27:03.349Z,61.94458008
2023-02-17T05:28:03.868Z,62.15209961
2023-02-17T05:29:04.350Z,62.04833984
2023-02-17T05:30:04.871Z,62.15209961
2023-02-17T05:31:06.411Z,62.24975586
2023-02-17T05:32:06.895Z,62.24975586
2023-02-17T05:33:07.325Z,62.15209961
2023-02-17T05:34:07.958Z,61.94458008
2023-02-17T05:35:08.471Z,62.35351563
2023-02-17T05:36:09.021Z,62.45727539
2023-02-17T05:37:09.563Z,62.24975586
2023-02-17T05:38:10.067Z,62.45727539
2023-02-17T05:39:10.700Z,62.56103516
2023-02-17T05:40:11.189Z,62.56103516
2023-02-17T05:41:12.313Z,62.45727539
2023-02-17T05:42:12.836Z,62.35351563
2023-02-17T05:43:13.346Z,62.45727539
2023-02-17T05:44:14.028Z,62.87231445
2023-02-17T05:45:14.426Z,62.56103516
2023-02-17T05:46:15.028Z,62.56103516
2023-02-17T05:47:15.471Z,62.56103516
2023-02-17T05:48:15.950Z,62.45727539
2023-02-17T05:49:16.507Z,62.56103516
2023-02-17T05:50:17.012Z,62.76855469
2023-02-17T05:51:48.290Z,62.76855469
2023-02-17T05:52:49.570Z,62.24975586
2023-02-17T05:53:50.048Z,61.94458008
2023-02-17T05:54:50.527Z,62.04833984
2023-02-17T05:55:51.038Z,62.04833984
2023-02-17T05:56:51.616Z,62.15209961
2023-02-17T05:57:52.168Z,62.15209961
2023-02-17T05:58:52.728Z,62.04833984
2023-02-17T05:59:53.222Z,61.84082031
2023-02-17T06:00:53.733Z,61.94458008
2023-02-17T06:01:55.094Z,62.15209961
2023-02-17T06:02:55.699Z,62.24975586
2023-02-17T06:03:56.115Z,61.94458008
2023-02-17T06:04:57.642Z,61.94458008
2023-02-17T06:05:58.174Z,61.9140625
2023-02-17T06:06:59.314Z,61.81030273
2023-02-17T06:07:59.826Z,61.40136719
2023-02-17T06:09:00.358Z,61.22436523
2023-02-17T06:10:00.920Z,61.29760742
2023-02-17T06:11:01.438Z,61.52954102
2023-02-17T06:12:02.583Z,61.50512695
2023-02-17T06:13:03.066Z,61.50512695
2023-02-17T06:14:03.597Z,61.29760742
2023-02-17T06:15:04.283Z,61.40136719
2023-02-17T06:16:04.962Z,61.40136719
2023-02-17T06:17:05.299Z,61.50512695
2023-02-17T06:18:05.809Z,61.70654297
2023-02-17T06:19:06.328Z,61.81030273
2023-02-17T06:20:06.820Z,61.50512695
2023-02-17T06:21:07.269Z,61.40136719
2023-02-17T06:22:08.566Z,61.40136719
2023-02-17T06:23:09.074Z,61.29760742
2023-02-17T06:24:09.591Z,61.29760742
2023-02-17T06:25:10.211Z,61.29760742
2023-02-17T06:26:10.891Z,61.19384766
2023-02-17T06:27:11.374Z,61.09008789
2023-02-17T06:28:11.893Z,60.88867188
2023-02-17T06:29:13.277Z,60.88867188
2023-02-17T06:30:13.865Z,61.12060547
2023-02-17T06:31:14.481Z,61.12060547
2023-02-17T06:32:15.914Z,61.22436523
2023-02-17T06:33:16.451Z,61.22436523
2023-02-17T06:34:47.619Z,61.12060547
2023-02-17T06:35:48.151Z,61.12060547
2023-02-17T06:36:48.688Z,61.0168457
2023-02-17T06:37:49.197Z,60.80932617
2023-02-17T06:38:49.710Z,60.71166992
2023-02-17T06:39:50.191Z,60.71166992
2023-02-17T06:40:50.699Z,60.71166992
2023-02-17T06:41:51.856Z,60.71166992
2023-02-17T06:42:52.341Z,60.80932617
2023-02-17T06:43:52.824Z,60.80932617
2023-02-17T06:44:53.291Z,60.71166992
2023-02-17T06:45:53.808Z,60.80932617
2023-02-17T06:46:54.275Z,60.80932617
2023-02-17T06:47:54.763Z,60.80932617
2023-02-17T06:48:55.290Z,60.80932617
2023-02-17T06:49:55.831Z,60.91308594
2023-02-17T06:50:56.300Z,60.91308594
2023-02-17T06:51:56.805Z,61.0168457
2023-02-17T06:52:57.296Z,61.0168457
2023-02-17T06:53:58.808Z,61.22436523
2023-02-17T06:54:59.306Z,61.63330078
2023-02-17T06:55:59.855Z,61.84082031
2023-02-17T06:57:00.390Z,62.04833984
2023-02-17T06:58:00.870Z,62.15209961
2023-02-17T06:59:01.502Z,62.24975586
2023-02-17T07:00:02.009Z,62.35351563
2023-02-17T07:01:03.316Z,62.35351563
2023-02-17T07:02:04.970Z,62.15209961
2023-02-17T07:03:05.418Z,62.45727539
2023-02-17T07:04:05.885Z,62.35351563
2023-02-17T07:05:06.347Z,61.94458008
2023-02-17T07:06:07.465Z,61.84082031
2023-02-17T07:07:07.732Z,61.84082031
2023-02-17T07:08:08.231Z,61.63330078
2023-02-17T07:09:09.097Z,61.52954102
2023-02-17T07:10:10.038Z,61.63330078
2023-02-17T07:11:11.020Z,61.63330078
2023-02-17T07:12:12.094Z,61.94458008
2023-02-17T07:13:12.577Z,62.35351563
2023-02-17T07:14:13.160Z,62.76855469
2023-02-17T07:15:13.769Z,62.76855469
2023-02-17T07:16:15.158Z,62.76855469
2023-02-17T07:17:15.686Z,62.66479492
2023-02-17T07:18:16.632Z,62.45727539
2023-02-17T07:19:47.472Z,62.73803711
2023-02-17T07:20:48.018Z,62.94555664
2023-02-17T07:21:49.403Z,62.94555664
2023-02-17T07:22:50.017Z,62.94555664
2023-02-17T07:23:50.544Z,62.84179688
2023-02-17T07:24:51.164Z,62.94555664
2023-02-17T07:25:51.755Z,62.63427734
2023-02-17T07:26:52.352Z,62.63427734
2023-02-17T07:27:52.954Z,62.73803711
2023-02-17T07:28:54.136Z,62.73803711
2023-02-17T07:29:54.665Z,62.53051758
2023-02-17T07:30:55.181Z,62.63427734
2023-02-17T07:31:56.399Z,62.63427734
2023-02-17T07:32:56.887Z,62.63427734
2023-02-17T07:33:57.374Z,62.53051758
2023-02-17T07:34:58.322Z,62.63427734
2023-02-17T07:35:58.989Z,62.63427734
2023-02-17T07:36:59.568Z,62.53051758
2023-02-17T07:38:00.124Z,62.42675781
2023-02-17T07:39:00.860Z,62.84179688
2023-02-17T07:40:01.428Z,62.73803711
2023-02-17T07:41:01.919Z,62.53051758
2023-02-17T07:42:03.381Z,62.2253418
2023-02-17T07:43:03.942Z,62.01782227
2023-02-17T07:44:04.408Z,62.12158203
2023-02-17T07:45:05.404Z,62.42675781
2023-02-17T07:46:06.404Z,62.84179688
2023-02-17T07:47:06.915Z,62.60375977
2023-02-17T07:48:07.533Z,62.70751953
2023-02-17T07:49:08.058Z,62.60375977
2023-02-17T07:50:08.582Z,62.60375977
2023-02-17T07:51:09.129Z,62.50610352
2023-02-17T07:52:10.793Z,62.40234375
2023-02-17T07:53:11.407Z,61.88354492
2023-02-17T07:54:11.981Z,61.68212891
2023-02-17T07:55:12.578Z,61.68212891
2023-02-17T07:56:13.122Z,61.57836914
2023-02-17T07:57:13.629Z,61.68212891
2023-02-17T07:58:14.196Z,64.63012695
2023-02-17T07:59:16.310Z,64.01367188
2023-02-17T08:00:47.118Z,62.98828125
2023-02-17T08:01:47.707Z,62.5793457
2023-02-17T08:02:49.116Z,62.5793457
2023-02-17T08:03:49.688Z,62.44506836
2023-02-17T08:04:50.346Z,62.23754883
2023-02-17T08:05:50.895Z,62.03613281
2023-02-17T08:06:51.502Z,62.13989258
2023-02-17T08:07:52.046Z,62.23754883
2023-02-17T08:08:52.592Z,63.78173828
2023-02-17T08:09:53.819Z,63.57421875
2023-02-17T08:10:55.317Z,62.72583008
2023-02-17T08:11:55.898Z,61.7980957
2023-02-17T08:12:57.439Z,61.59667969
2023-02-17T08:13:57.990Z,61.18164063
2023-02-17T08:14:58.607Z,60.87646484
2023-02-17T08:15:59.847Z,60.56518555
2023-02-17T08:17:00.686Z,59.74731445
2023-02-17T08:18:01.175Z,59.53979492
2023-02-17T08:19:01.712Z,59.43603516
2023-02-17T08:20:08.691Z,59.43603516
2023-02-17T08:21:02.803Z,59.13085938
2023-02-17T08:22:04.135Z,59.23461914
2023-02-17T08:23:05.655Z,59.02709961
2023-02-17T08:24:06.194Z,58.82568359
2023-02-17T08:25:06.774Z,58.61816406
2023-02-17T08:26:08.190Z,57.89794922
2023-02-17T08:27:08.418Z,57.28149414
2023-02-17T08:28:10.073Z,57.28149414
2023-02-17T08:29:11.399Z,57.04956055
2023-02-17T08:30:11.908Z,57.15332031
2023-02-17T08:31:12.516Z,56.94580078
2023-02-17T08:32:13.931Z,56.84814453
2023-02-17T08:33:14.387Z,56.43310547
2023-02-17T08:34:15.070Z,55.79223633
2023-02-17T08:35:46.375Z,55.48706055
2023-02-17T08:36:46.929Z,54.7668457
2023-02-17T08:37:47.491Z,54.66308594
2023-02-17T08:38:48.862Z,54.7668457
2023-02-17T08:39:49.457Z,54.35791016
2023-02-17T08:40:49.958Z,53.92456055
2023-02-17T08:41:50.588Z,53.71704102
2023-02-17T08:42:51.869Z,53.30810547
2023-02-17T08:43:52.543Z,53.10058594
2023-02-17T08:44:53.065Z,52.28271484
2023-02-17T08:45:53.632Z,52.15454102
2023-02-17T08:46:54.196Z,52.25830078
2023-02-17T08:47:54.901Z,52.05078125
2023-02-17T08:48:55.408Z,51.953125
2023-02-17T08:49:56.049Z,51.74560547
2023-02-17T08:50:56.514Z,51.953125
2023-02-17T08:51:57.064Z,52.02636719
2023-02-17T08:52:58.409Z,51.92871094
2023-02-17T08:53:58.947Z,51.82495117
2023-02-17T08:54:59.490Z,52.33764648
2023-02-17T08:56:00.031Z,53.15551758
2023-02-17T08:57:00.559Z,52.74658203
2023-02-17T08:58:01.345Z,53.46069336
2023-02-17T08:59:02.710Z,52.92358398
2023-02-17T09:00:05.493Z,52.51464844
2023-02-17T09:01:03.854Z,52.20947266
2023-02-17T09:02:04.246Z,52.31323242
2023-02-17T09:03:05.608Z,52.49023438
2023-02-17T09:04:06.203Z,52.28881836
2023-02-17T09:05:07.126Z,53.00292969
2023-02-17T09:06:08.572Z,51.87988281
2023-02-17T09:07:08.866Z,51.77612305
2023-02-17T09:08:09.361Z,51.85546875
2023-02-17T09:09:09.850Z,52.16064453
2023-02-17T09:10:10.608Z,52.05688477
2023-02-17T09:11:11.188Z,52.16064453
2023-02-17T09:12:11.780Z,51.64794922
2023-02-17T09:13:13.174Z,51.23901367
2023-02-17T09:14:13.714Z,51.34277344
2023-02-17T09:15:14.324Z,51.4465332
2023-02-17T09:16:14.830Z,51.34277344
2023-02-17T09:17:45.747Z,51.54418945
2023-02-17T09:18:46.523Z,52.36816406
2023-02-17T09:19:47.139Z,51.64794922
2023-02-17T09:20:47.712Z,51.23901367
2023-02-17T09:21:48.278Z,51.4465332
2023-02-17T09:22:51.430Z,51.64794922
2023-02-17T09:23:50.027Z,51.85546875
2023-02-17T09:24:50.528Z,51.953125
2023-02-17T09:25:51.097Z,52.05688477
2023-02-17T09:26:51.595Z,52.34375
2023-02-17T09:27:52.141Z,51.93481445
2023-02-17T09:28:52.695Z,52.13623047
2023-02-17T09:29:53.868Z,51.93481445
2023-02-17T09:30:54.551Z,52.0324707
2023-02-17T09:31:55.171Z,52.13623047
2023-02-17T09:32:56.428Z,52.13623047
2023-02-17T09:33:56.882Z,52.0324707
2023-02-17T09:34:57.499Z,52.23999023
2023-02-17T09:35:58.085Z,52.34375
2023-02-17T09:36:58.808Z,52.44140625
2023-02-17T09:37:59.410Z,52.41699219
2023-02-17T09:38:59.983Z,52.44140625
2023-02-17T09:40:00.577Z,52.62451172
2023-02-17T09:41:01.280Z,52.72216797
2023-02-17T09:42:01.848Z,52.82592773
2023-02-17T09:43:03.369Z,53.03344727
2023-02-17T09:44:03.925Z,53.03344727
2023-02-17T09:45:04.766Z,53.23486328
2023-02-17T09:46:05.596Z,53.44238281
2023-02-17T09:47:05.949Z,53.23486328
2023-02-17T09:48:06.395Z,53.23486328
2023-02-17T09:49:06.844Z,53.23486328
2023-02-17T09:50:07.562Z,53.33862305
2023-02-17T09:51:08.192Z,53.64379883
2023-02-17T09:52:08.747Z,53.515625
2023-02-17T09:53:09.846Z,53.515625
2023-02-17T09:54:10.563Z,53.72314453
2023-02-17T09:55:11.124Z,53.8269043
2023-02-17T09:56:11.669Z,53.92456055
2023-02-17T09:57:12.321Z,53.92456055
2023-02-17T09:58:13.722Z,53.92456055
2023-02-17T09:59:14.188Z,53.8269043
2023-02-17T10:00:45.300Z,53.72314453
2023-02-17T10:01:46.608Z,53.61938477
2023-02-17T10:02:47.177Z,53.72314453
2023-02-17T10:03:48.617Z,53.61938477
2023-02-17T10:04:49.079Z,53.61938477
2023-02-17T10:05:49.647Z,53.31420898
2023-02-17T10:06:50.232Z,53.41796875
2023-02-17T10:07:50.651Z,53.38745117
2023-02-17T10:08:51.124Z,52.98461914
2023-02-17T10:09:51.599Z,53.18603516
2023-02-17T10:10:52.458Z,52.77709961
2023-02-17T10:11:52.982Z,52.77709961
2023-02-17T10:12:53.538Z,52.98461914
2023-02-17T10:13:54.624Z,52.98461914
2023-02-17T10:14:55.151Z,53.28979492
2023-02-17T10:15:55.774Z,52.98461914
2023-02-17T10:16:56.199Z,52.77709961
2023-02-17T10:17:56.724Z,52.57568359
2023-02-17T10:18:57.390Z,52.36816406
2023-02-17T10:19:57.757Z,52.16674805
2023-02-17T10:20:58.339Z,52.14233398
2023-02-17T10:21:58.878Z,51.8371582
2023-02-17T10:23:00.353Z,51.62963867
2023-02-17T10:24:00.985Z,51.32446289
2023-02-17T10:25:02.078Z,51.01928711
2023-02-17T10:26:02.708Z,50.91552734
2023-02-17T10:27:03.503Z,50.91552734
2023-02-17T10:28:04.902Z,51.01928711
2023-02-17T10:29:05.539Z,51.01928711
2023-02-17T10:30:06.341Z,50.91552734
2023-02-17T10:31:06.954Z,51.12304688
2023-02-17T10:32:07.794Z,51.12304688
2023-02-17T10:33:08.913Z,51.12304688
2023-02-17T10:34:09.544Z,50.81176758
2023-02-17T10:35:10.101Z,50.81176758
2023-02-17T10:36:10.941Z,50.79345703
2023-02-17T10:37:11.660Z,50.79345703
2023-02-17T10:38:12.184Z,50.5859375
2023-02-17T10:39:12.970Z,50.0793457
2023-02-17T10:40:13.532Z,50.17700195
2023-02-17T10:41:44.682Z,50.38452148
2023-02-17T10:42:45.241Z,50.38452148
2023-02-17T10:43:46.607Z,50.56152344
2023-02-17T10:44:47.229Z,50.97045898
2023-02-17T10:45:47.773Z,51.27563477
2023-02-17T10:46:48.318Z,51.58081055
2023-02-17T10:47:49.041Z,51.4831543
2023-02-17T10:48:49.597Z,51.37939453
2023-02-17T10:49:50.085Z,51.37939453
2023-02-17T10:50:50.528Z,51.35498047
2023-02-17T10:51:51.006Z,51.15356445
2023-02-17T10:52:51.538Z,51.15356445
2023-02-17T10:53:52.601Z,51.2512207
2023-02-17T10:54:53.188Z,51.15356445
2023-02-17T10:55:53.646Z,51.15356445
2023-02-17T10:56:54.140Z,51.04980469
2023-02-17T10:57:54.689Z,51.15356445
2023-02-17T10:58:56.121Z,51.45874023
2023-02-17T10:59:56.627Z,51.66015625
2023-02-17T11:00:57.150Z,51.76391602
2023-02-17T11:01:57.583Z,51.45874023
2023-02-17T11:02:58.117Z,51.45874023
2023-02-17T11:03:59.588Z,51.45874023